AirNav   Duncan Aviation - Near you to keep you flying
 
 1566 users online  

6CA6 Eagle Ridge Ranch Airport
Railroad Flat, California, USA

GOING TO RAILROAD FLAT?


FAA INFORMATION EFFECTIVE 04 NOVEMBER 2021

Location

FAA Identifier: 6CA6
Lat/Long: 38-19-28.3000N 120-28-41.6100W
38-19.471667N 120-28.693500W
38.3245278,-120.4782250
(estimated)
Elevation: 2870 ft. / 875 m (estimated)
Variation: 16E (1985)
From city: 2 miles SE of RAILROAD FLAT, CA
Time zone: UTC -7 (UTC -8 during Standard Time)
Zip code: 95246

Airport Operations

Airport use: Private use. Permission required prior to landing
Activation date: 08/1990
Control tower: no
ARTCC: OAKLAND CENTER
FSS: RANCHO MURIETA FLIGHT SERVICE STATION
Attendance: UNATNDD
Wind indicator: yes
Segmented circle: no

Airport Communications

WX AWOS-3P at CPU (13 nm SW): 118.525 (209-736-2523)
WX AWOS-3 at JAQ (15 nm W): 121.125 (209-257-1292)
WX AWOS-3 at O22 (18 nm S): 124.65 (209-536-9384)

Nearby radio navigation aids

VOR radial/distance  VOR name  Freq  Var
HNWr135/27.2HANGTOWN VOR/DME115.5017E
LINr042/29.0LINDEN VOR/DME114.8017E

Airport Services

Runway Information

Runway 8/26

Dimensions: 4000 x 33 ft. / 1219 x 10 m
RWY 08/26 1500 FT ASPH, REMAINDER GRVL.
Surface: asphalt/gravel
RUNWAY 8  RUNWAY 26
Traffic pattern: leftleft
Obstructions: none180 ft. trees, 3000 ft. from runway

Airport Ownership and Management from official FAA records

Ownership: Privately-owned
Owner: KENNETH L. WAGNER, JR.
1599 TOP DOLLAR RD, PO BOX 549
RAILROAD FLAT, CA 95248
Phone 209-293-1375
Manager: KENNETH L. WAGNER, JR.
1599 TOP DOLLAR RD, PO BOX 549
RAILROAD FLAT, CA 95248
Phone 209-293-1375

Airport Operational Statistics

Aircraft based on the field: 1
Multi engine airplanes: 1
    

Additional Remarks

FOR CD CTC NORCAL APCH AT 916-361-6874.

Instrument Procedures

There are no published instrument procedures at 6CA6.

Some nearby airports with instrument procedures:

KCPU - Calaveras County Airport - Maury Rasmussen Field (13 nm SW)
KJAQ - Westover Field / Amador County Airport (15 nm W)
O22 - Columbia Airport (18 nm S)
KPVF - Placerville Airport (27 nm NW)
E45 - Pine Mountain Lake Airport (31 nm SE)
 
Loc | Ops | Rwys | IFR | FBO | Links
Com | Nav | Svcs | Stats | Notes
Area around 6CA6 (Eagle Ridge Ranch Airport)
 
Road maps at: MapQuest Bing Google
 
Aerial photo
No photo
 
Sectional chart

 
Airport distance calculator
Flying to Eagle Ridge Ranch Airport? Find the distance to fly.

From to 6CA6

Sunrise and sunset
Times for 29-Nov-2021
 Local
(UTC-8)
 Zulu
(UTC)
Morning civil twilight06:3014:30
Sunrise06:5914:59
Sunset16:4100:41
Evening civil twilight17:1001:10

Current date and time
Zulu (UTC)  30-Nov-2021 01:25:48
Local (UTC-8)  29-Nov-2021 17:25:48
 
METAR
KCPU 
13nm SW 
300055Z AUTO 34007KT 10SM 15/10 A3011 RMK AO2 T01460098
KJAQ 
15nm W 
300055Z AUTO 34003KT 10SM CLR 16/09 A3012 RMK AO1 T01550090
KO22 
18nm S 
300055Z AUTO 00000KT 10SM CLR 14/07 A3012 RMK A01
TAF
KMHR 
40nm W 
291720Z 2918/3018 VRB04KT P6SM FEW250 FM300900 VRB02KT 4SM BR FEW250
KTVL 
41nm NE 
291739Z 2918/3018 VRB04KT P6SM FEW200
KSCK 
44nm SW 
291720Z 2918/3018 VRB04KT 3SM BR FEW250 FM292000 30006KT P6SM FEW250 FM300400 VRB03KT 3SM BR FEW250 FM300600 VRB02KT 1 1/2SM BR FEW250 TEMPO 3008/3012 1/4SM FG VV003 FM301400 00000KT 1/4SM FG VV003
KMCC 
48nm NW 
291720Z 2918/3018 VRB04KT P6SM FEW250 FM300900 VRB02KT 4SM BR FEW250
KMOD 
48nm SW 
291720Z 2918/3018 VRB04KT 3SM HZ FEW250 FM292000 32006KT P6SM FEW250 FM300400 VRB03KT 3SM BR FEW250 FM300600 VRB02KT 1 1/2SM BR FEW250 TEMPO 3008/3012 1/4SM FG VV003 FM301200 VRB02KT 1/4SM FG VV002
KSAC 
49nm W 
291720Z 2918/3018 VRB05KT P6SM FEW250 FM300500 VRB03KT 3SM BR FEW250 FM300800 VRB02KT 1/4SM FG VV002
NOTAMs
Click for the latest NOTAMs
NOTAMs are issued by the DoD/FAA and will open in a separate window not controlled by AirNav.

 

 
 

Would you like to see your business listed on this page?

 If your business provides an interesting product or service to pilots, flight crews, aircraft, or users of the Eagle Ridge Ranch Airport, you should consider listing it here.  To start the listing process, click on the button below
 
Add a business
 

Other Pages about Eagle Ridge Ranch Airport

Update a link
 
Copyright © AirNav, LLC. All rights reserved. Privacy Policy  Contact